sensor_id;sensor_type;location;lat;lon;timestamp;temperature;humidity
24618;DHT22;12762;51.730;5.356;2024-03-23T00:53:17;8.50;89.50
24618;DHT22;12762;51.730;5.356;2024-03-23T00:55:43;8.50;89.50
24618;DHT22;12762;51.730;5.356;2024-03-23T00:58:09;8.50;89.50
24618;DHT22;12762;51.730;5.356;2024-03-23T01:00:35;8.50;89.50
24618;DHT22;12762;51.730;5.356;2024-03-23T01:03:01;8.40;89.40
24618;DHT22;12762;51.730;5.356;2024-03-23T01:05:27;8.40;89.40
24618;DHT22;12762;51.730;5.356;2024-03-23T01:07:53;8.40;89.40
24618;DHT22;12762;51.730;5.356;2024-03-23T01:10:18;8.40;89.50
24618;DHT22;12762;51.730;5.356;2024-03-23T01:12:44;8.40;89.50
24618;DHT22;12762;51.730;5.356;2024-03-23T01:15:10;8.30;89.40
24618;DHT22;12762;51.730;5.356;2024-03-23T01:17:36;8.30;89.50
24618;DHT22;12762;51.730;5.356;2024-03-23T01:20:02;8.30;89.50
24618;DHT22;12762;51.730;5.356;2024-03-23T01:22:28;8.30;89.50
24618;DHT22;12762;51.730;5.356;2024-03-23T01:24:54;8.30;89.50
24618;DHT22;12762;51.730;5.356;2024-03-23T01:27:20;8.30;89.50
24618;DHT22;12762;51.730;5.356;2024-03-23T01:29:45;8.30;89.60
24618;DHT22;12762;51.730;5.356;2024-03-23T01:32:11;8.30;89.60
24618;DHT22;12762;51.730;5.356;2024-03-23T01:34:37;8.30;89.60
24618;DHT22;12762;51.730;5.356;2024-03-23T01:37:03;8.30;89.60
24618;DHT22;12762;51.730;5.356;2024-03-23T01:39:28;8.30;89.60
24618;DHT22;12762;51.730;5.356;2024-03-23T01:41:54;8.30;89.70
24618;DHT22;12762;51.730;5.356;2024-03-23T01:44:20;8.30;89.70
24618;DHT22;12762;51.730;5.356;2024-03-23T01:46:46;8.30;89.70
24618;DHT22;12762;51.730;5.356;2024-03-23T01:49:12;8.30;89.70
24618;DHT22;12762;51.730;5.356;2024-03-23T01:51:38;8.30;89.70
24618;DHT22;12762;51.730;5.356;2024-03-23T01:54:06;8.30;89.70
24618;DHT22;12762;51.730;5.356;2024-03-23T01:56:33;8.40;89.90
24618;DHT22;12762;51.730;5.356;2024-03-23T01:59:05;8.30;89.70
24618;DHT22;12762;51.730;5.356;2024-03-23T02:01:32;8.30;89.70
24618;DHT22;12762;51.730;5.356;2024-03-23T02:03:58;8.30;89.70
24618;DHT22;12762;51.730;5.356;2024-03-23T02:06:24;8.30;89.70
24618;DHT22;12762;51.730;5.356;2024-03-23T02:08:51;8.30;89.70
24618;DHT22;12762;51.730;5.356;2024-03-23T02:11:17;8.30;89.60
24618;DHT22;12762;51.730;5.356;2024-03-23T02:13:43;8.30;89.60
24618;DHT22;12762;51.730;5.356;2024-03-23T02:16:09;8.30;89.60
24618;DHT22;12762;51.730;5.356;2024-03-23T02:18:35;8.30;89.60
24618;DHT22;12762;51.730;5.356;2024-03-23T02:21:01;8.30;89.60
24618;DHT22;12762;51.730;5.356;2024-03-23T02:23:27;8.30;89.60
24618;DHT22;12762;51.730;5.356;2024-03-23T02:25:55;8.30;89.50
24618;DHT22;12762;51.730;5.356;2024-03-23T02:28:21;8.20;89.50
24618;DHT22;12762;51.730;5.356;2024-03-23T02:30:51;8.20;89.50
24618;DHT22;12762;51.730;5.356;2024-03-23T02:33:17;8.20;89.60
24618;DHT22;12762;51.730;5.356;2024-03-23T02:35:44;8.20;89.60
24618;DHT22;12762;51.730;5.356;2024-03-23T02:38:13;8.20;89.70
24618;DHT22;12762;51.730;5.356;2024-03-23T02:40:39;8.10;89.60
24618;DHT22;12762;51.730;5.356;2024-03-23T02:43:05;8.10;89.60
24618;DHT22;12762;51.730;5.356;2024-03-23T02:45:34;8.10;89.60
24618;DHT22;12762;51.730;5.356;2024-03-23T03:28:23;7.60;89.10
24618;DHT22;12762;51.730;5.356;2024-03-23T03:30:49;7.50;89.10
24618;DHT22;12762;51.730;5.356;2024-03-23T03:33:15;7.50;89.20
24618;DHT22;12762;51.730;5.356;2024-03-23T03:35:41;7.50;89.10
24618;DHT22;12762;51.730;5.356;2024-03-23T03:38:07;7.50;89.20
24618;DHT22;12762;51.730;5.356;2024-03-23T03:40:32;7.50;89.20
24618;DHT22;12762;51.730;5.356;2024-03-23T03:42:58;7.40;89.00
24618;DHT22;12762;51.730;5.356;2024-03-23T03:45:24;7.40;89.00
24618;DHT22;12762;51.730;5.356;2024-03-23T03:47:50;7.40;89.00
24618;DHT22;12762;51.730;5.356;2024-03-23T03:50:15;7.30;89.00
24618;DHT22;12762;51.730;5.356;2024-03-23T03:52:41;7.30;89.00
24618;DHT22;12762;51.730;5.356;2024-03-23T03:55:13;7.30;89.80
24618;DHT22;12762;51.730;5.356;2024-03-23T03:57:39;7.20;88.90
24618;DHT22;12762;51.730;5.356;2024-03-23T04:00:05;7.20;88.90
24618;DHT22;12762;51.730;5.356;2024-03-23T04:02:31;7.20;89.00
24618;DHT22;12762;51.730;5.356;2024-03-23T04:04:57;7.20;88.90
24618;DHT22;12762;51.730;5.356;2024-03-23T04:07:23;7.10;88.80
24618;DHT22;12762;51.730;5.356;2024-03-23T04:09:49;7.10;88.90
24618;DHT22;12762;51.730;5.356;2024-03-23T04:12:18;7.10;89.00
24618;DHT22;12762;51.730;5.356;2024-03-23T04:14:43;7.10;89.00
24618;DHT22;12762;51.730;5.356;2024-03-23T04:17:09;7.00;88.90
24618;DHT22;12762;51.730;5.356;2024-03-23T04:19:35;7.00;88.90
24618;DHT22;12762;51.730;5.356;2024-03-23T04:22:01;7.00;88.90
24618;DHT22;12762;51.730;5.356;2024-03-23T04:24:26;6.90;88.80
24618;DHT22;12762;51.730;5.356;2024-03-23T04:26:52;6.90;88.90
24618;DHT22;12762;51.730;5.356;2024-03-23T04:29:18;6.80;88.80
24618;DHT22;12762;51.730;5.356;2024-03-23T04:31:44;6.80;88.80
24618;DHT22;12762;51.730;5.356;2024-03-23T04:34:10;6.70;88.90
24618;DHT22;12762;51.730;5.356;2024-03-23T04:36:35;6.70;88.90
24618;DHT22;12762;51.730;5.356;2024-03-23T04:39:01;6.60;88.90
24618;DHT22;12762;51.730;5.356;2024-03-23T04:41:27;6.60;89.00
24618;DHT22;12762;51.730;5.356;2024-03-23T04:49:10;6.40;89.00
24618;DHT22;12762;51.730;5.356;2024-03-23T04:51:36;6.40;89.00
24618;DHT22;12762;51.730;5.356;2024-03-23T04:54:03;6.40;89.20
24618;DHT22;12762;51.730;5.356;2024-03-23T04:56:29;6.30;89.10
24618;DHT22;12762;51.730;5.356;2024-03-23T04:58:57;6.30;89.20
24618;DHT22;12762;51.730;5.356;2024-03-23T05:01:27;6.30;89.30
24618;DHT22;12762;51.730;5.356;2024-03-23T05:03:53;6.30;89.40
24618;DHT22;12762;51.730;5.356;2024-03-23T05:06:19;6.20;89.30
24618;DHT22;12762;51.730;5.356;2024-03-23T05:08:45;6.20;89.30
24618;DHT22;12762;51.730;5.356;2024-03-23T05:11:11;6.20;89.40
24618;DHT22;12762;51.730;5.356;2024-03-23T05:13:37;6.10;89.30
24618;DHT22;12762;51.730;5.356;2024-03-23T05:16:03;6.10;89.40
24618;DHT22;12762;51.730;5.356;2024-03-23T05:18:29;6.10;89.40
24618;DHT22;12762;51.730;5.356;2024-03-23T05:20:56;6.10;89.50
24618;DHT22;12762;51.730;5.356;2024-03-23T05:23:23;6.10;89.60
24618;DHT22;12762;51.730;5.356;2024-03-23T05:25:49;6.10;89.60
24618;DHT22;12762;51.730;5.356;2024-03-23T05:28:15;6.10;89.70
24618;DHT22;12762;51.730;5.356;2024-03-23T05:30:41;6.10;89.60
24618;DHT22;12762;51.730;5.356;2024-03-23T05:33:06;6.10;89.70
24618;DHT22;12762;51.730;5.356;2024-03-23T05:35:33;6.10;89.60
24618;DHT22;12762;51.730;5.356;2024-03-23T05:37:59;6.10;89.60
24618;DHT22;12762;51.730;5.356;2024-03-23T05:40:26;6.10;89.60
24618;DHT22;12762;51.730;5.356;2024-03-23T05:42:52;6.00;89.70
24618;DHT22;12762;51.730;5.356;2024-03-23T05:45:19;6.00;89.60
24618;DHT22;12762;51.730;5.356;2024-03-23T05:47:45;6.00;89.60
24618;DHT22;12762;51.730;5.356;2024-03-23T05:50:10;6.00;89.60
24618;DHT22;12762;51.730;5.356;2024-03-23T05:52:38;6.00;89.70
24618;DHT22;12762;51.730;5.356;2024-03-23T05:55:05;6.00;89.70
24618;DHT22;12762;51.730;5.356;2024-03-23T05:57:31;6.00;89.70
24618;DHT22;12762;51.730;5.356;2024-03-23T05:59:57;6.00;89.70
24618;DHT22;12762;51.730;5.356;2024-03-23T06:02:24;6.00;89.70
24618;DHT22;12762;51.730;5.356;2024-03-23T06:04:50;6.00;89.70
24618;DHT22;12762;51.730;5.356;2024-03-23T06:07:15;6.10;89.80
24618;DHT22;12762;51.730;5.356;2024-03-23T06:09:42;6.10;89.80
24618;DHT22;12762;51.730;5.356;2024-03-23T06:12:08;6.10;89.70
24618;DHT22;12762;51.730;5.356;2024-03-23T06:14:34;6.20;89.80
24618;DHT22;12762;51.730;5.356;2024-03-23T06:17:00;6.20;89.80
24618;DHT22;12762;51.730;5.356;2024-03-23T06:19:27;6.20;89.80
24618;DHT22;12762;51.730;5.356;2024-03-23T06:21:56;6.30;90.00
24618;DHT22;12762;51.730;5.356;2024-03-23T06:24:22;6.30;89.90
24618;DHT22;12762;51.730;5.356;2024-03-23T06:26:48;6.40;89.90
24618;DHT22;12762;51.730;5.356;2024-03-23T06:29:14;6.40;89.70
24618;DHT22;12762;51.730;5.356;2024-03-23T06:31:39;6.40;89.60
24618;DHT22;12762;51.730;5.356;2024-03-23T06:34:05;6.50;89.70
24618;DHT22;12762;51.730;5.356;2024-03-23T06:36:31;6.50;89.70
24618;DHT22;12762;51.730;5.356;2024-03-23T06:38:57;6.50;89.70
24618;DHT22;12762;51.730;5.356;2024-03-23T06:41:23;6.60;89.80
24618;DHT22;12762;51.730;5.356;2024-03-23T06:43:49;6.70;89.80
24618;DHT22;12762;51.730;5.356;2024-03-23T06:46:14;6.70;89.70
24618;DHT22;12762;51.730;5.356;2024-03-23T06:48:40;6.80;89.70
24618;DHT22;12762;51.730;5.356;2024-03-23T06:51:06;6.90;89.60
24618;DHT22;12762;51.730;5.356;2024-03-23T06:53:32;6.90;89.50
24618;DHT22;12762;51.730;5.356;2024-03-23T06:55:58;7.00;89.60
24618;DHT22;12762;51.730;5.356;2024-03-23T06:58:24;7.00;89.50
24618;DHT22;12762;51.730;5.356;2024-03-23T07:00:50;7.10;89.50
24618;DHT22;12762;51.730;5.356;2024-03-23T07:03:20;7.10;89.40
24618;DHT22;12762;51.730;5.356;2024-03-23T07:05:47;7.10;89.30
24618;DHT22;12762;51.730;5.356;2024-03-23T07:08:13;7.20;89.20
24618;DHT22;12762;51.730;5.356;2024-03-23T07:10:44;7.30;89.20
24618;DHT22;12762;51.730;5.356;2024-03-23T07:13:09;7.30;89.20
24618;DHT22;12762;51.730;5.356;2024-03-23T07:15:35;7.30;89.10
24618;DHT22;12762;51.730;5.356;2024-03-23T07:18:01;7.40;89.10
24618;DHT22;12762;51.730;5.356;2024-03-23T07:20:27;7.40;89.00
24618;DHT22;12762;51.730;5.356;2024-03-23T07:22:56;7.50;89.00
24618;DHT22;12762;51.730;5.356;2024-03-23T07:25:21;7.50;88.90
24618;DHT22;12762;51.730;5.356;2024-03-23T07:27:52;7.50;89.00
24618;DHT22;12762;51.730;5.356;2024-03-23T07:30:19;7.50;88.90
24618;DHT22;12762;51.730;5.356;2024-03-23T07:32:45;7.50;88.90
24618;DHT22;12762;51.730;5.356;2024-03-23T07:35:11;7.50;88.70
24618;DHT22;12762;51.730;5.356;2024-03-23T07:37:37;7.60;88.80
24618;DHT22;12762;51.730;5.356;2024-03-23T07:40:03;7.60;88.80
24618;DHT22;12762;51.730;5.356;2024-03-23T07:42:29;7.70;88.90
24618;DHT22;12762;51.730;5.356;2024-03-23T07:44:55;7.70;88.80
24618;DHT22;12762;51.730;5.356;2024-03-23T07:47:22;7.80;88.90
24618;DHT22;12762;51.730;5.356;2024-03-23T07:49:52;7.90;89.00
24618;DHT22;12762;51.730;5.356;2024-03-23T07:52:18;8.00;89.00
24618;DHT22;12762;51.730;5.356;2024-03-23T07:54:44;8.40;90.00
24618;DHT22;12762;51.730;5.356;2024-03-23T07:57:09;9.50;90.50
24618;DHT22;12762;51.730;5.356;2024-03-23T07:59:35;10.50;89.50
24618;DHT22;12762;51.730;5.356;2024-03-23T08:02:01;11.30;87.70
24618;DHT22;12762;51.730;5.356;2024-03-23T08:04:27;12.00;85.90
24618;DHT22;12762;51.730;5.356;2024-03-23T08:06:53;12.60;85.10
24618;DHT22;12762;51.730;5.356;2024-03-23T08:09:19;13.10;83.30
24618;DHT22;12762;51.730;5.356;2024-03-23T08:11:45;13.20;81.80
24618;DHT22;12762;51.730;5.356;2024-03-23T08:14:12;13.40;80.10
24618;DHT22;12762;51.730;5.356;2024-03-23T08:16:38;13.30;80.20
24618;DHT22;12762;51.730;5.356;2024-03-23T08:19:04;13.80;80.20
24618;DHT22;12762;51.730;5.356;2024-03-23T08:21:30;14.20;79.00
24618;DHT22;12762;51.730;5.356;2024-03-23T08:23:56;14.50;77.60
24618;DHT22;12762;51.730;5.356;2024-03-23T08:26:25;14.70;77.20
24618;DHT22;12762;51.730;5.356;2024-03-23T08:28:51;14.80;75.90
24618;DHT22;12762;51.730;5.356;2024-03-23T08:31:16;15.00;76.30
24618;DHT22;12762;51.730;5.356;2024-03-23T08:33:42;14.70;74.10
24618;DHT22;12762;51.730;5.356;2024-03-23T08:36:10;13.90;73.60
24618;DHT22;12762;51.730;5.356;2024-03-23T08:38:38;13.00;73.80
24618;DHT22;12762;51.730;5.356;2024-03-23T08:41:06;12.30;74.40
24618;DHT22;12762;51.730;5.356;2024-03-23T08:43:41;11.90;76.00
24618;DHT22;12762;51.730;5.356;2024-03-23T08:48:36;11.80;77.40
24618;DHT22;12762;51.730;5.356;2024-03-23T08:51:06;11.60;77.30
24618;DHT22;12762;51.730;5.356;2024-03-23T08:53:32;11.30;76.50
24618;DHT22;12762;51.730;5.356;2024-03-23T08:55:58;10.80;76.30
24618;DHT22;12762;51.730;5.356;2024-03-23T08:58:25;10.40;77.10
24618;DHT22;12762;51.730;5.356;2024-03-23T09:00:52;10.00;77.80
24618;DHT22;12762;51.730;5.356;2024-03-23T09:03:18;9.70;79.50
24618;DHT22;12762;51.730;5.356;2024-03-23T09:05:44;9.40;80.00
24618;DHT22;12762;51.730;5.356;2024-03-23T09:08:10;9.20;80.20
24618;DHT22;12762;51.730;5.356;2024-03-23T09:10:40;9.00;81.00
24618;DHT22;12762;51.730;5.356;2024-03-23T09:13:06;9.20;82.50
24618;DHT22;12762;51.730;5.356;2024-03-23T09:15:36;9.50;83.00
24618;DHT22;12762;51.730;5.356;2024-03-23T09:18:03;10.00;82.40
24618;DHT22;12762;51.730;5.356;2024-03-23T09:20:32;10.40;82.20
24618;DHT22;12762;51.730;5.356;2024-03-23T09:22:58;10.90;81.90
24618;DHT22;12762;51.730;5.356;2024-03-23T09:25:24;11.20;81.20
24618;DHT22;12762;51.730;5.356;2024-03-23T09:27:50;11.30;80.40
24618;DHT22;12762;51.730;5.356;2024-03-23T09:30:19;11.20;80.00
24618;DHT22;12762;51.730;5.356;2024-03-23T09:32:45;11.10;79.60
24618;DHT22;12762;51.730;5.356;2024-03-23T09:35:11;11.10;79.90
24618;DHT22;12762;51.730;5.356;2024-03-23T09:37:40;11.10;79.70
24618;DHT22;12762;51.730;5.356;2024-03-23T09:40:10;11.20;80.10
24618;DHT22;12762;51.730;5.356;2024-03-23T09:42:37;11.40;80.10
24618;DHT22;12762;51.730;5.356;2024-03-23T09:45:06;11.50;79.90
24618;DHT22;12762;51.730;5.356;2024-03-23T09:47:35;11.70;79.80
24618;DHT22;12762;51.730;5.356;2024-03-23T09:50:01;11.80;79.20
24618;DHT22;12762;51.730;5.356;2024-03-23T09:52:27;12.00;79.20
24618;DHT22;12762;51.730;5.356;2024-03-23T09:54:53;11.90;78.00
24618;DHT22;12762;51.730;5.356;2024-03-23T09:57:18;11.70;76.40
24618;DHT22;12762;51.730;5.356;2024-03-23T09:59:44;11.40;76.20
24618;DHT22;12762;51.730;5.356;2024-03-23T10:02:10;11.10;76.80
24618;DHT22;12762;51.730;5.356;2024-03-23T10:04:41;11.10;77.90
24618;DHT22;12762;51.730;5.356;2024-03-23T10:07:19;11.30;78.50
24618;DHT22;12762;51.730;5.356;2024-03-23T10:09:45;11.40;77.90
24618;DHT22;12762;51.730;5.356;2024-03-23T10:12:15;11.40;77.60
24618;DHT22;12762;51.730;5.356;2024-03-23T10:14:41;11.50;77.60
24618;DHT22;12762;51.730;5.356;2024-03-23T10:17:18;11.50;77.70
24618;DHT22;12762;51.730;5.356;2024-03-23T10:19:45;11.60;76.90
24618;DHT22;12762;51.730;5.356;2024-03-23T10:22:19;11.70;77.10
24618;DHT22;12762;51.730;5.356;2024-03-23T10:24:45;11.90;77.30
24618;DHT22;12762;51.730;5.356;2024-03-23T10:27:18;12.30;76.90
24618;DHT22;12762;51.730;5.356;2024-03-23T11:02:19;12.60;73.30
24618;DHT22;12762;51.730;5.356;2024-03-23T11:04:45;12.90;73.30
24618;DHT22;12762;51.730;5.356;2024-03-23T11:07:33;12.90;72.90
24618;DHT22;12762;51.730;5.356;2024-03-23T11:09:59;12.80;71.80
24618;DHT22;12762;51.730;5.356;2024-03-23T11:12:26;12.50;71.70
24618;DHT22;12762;51.730;5.356;2024-03-23T11:15:10;12.20;71.70
24618;DHT22;12762;51.730;5.356;2024-03-23T11:17:37;12.00;72.70
24618;DHT22;12762;51.730;5.356;2024-03-23T11:20:04;12.00;73.70
24618;DHT22;12762;51.730;5.356;2024-03-23T11:25:19;12.30;73.70
24618;DHT22;12762;51.730;5.356;2024-03-23T11:27:53;12.50;72.10
24618;DHT22;12762;51.730;5.356;2024-03-23T11:30:19;12.50;71.50
24618;DHT22;12762;51.730;5.356;2024-03-23T11:32:49;12.30;72.40
24618;DHT22;12762;51.730;5.356;2024-03-23T11:35:38;12.00;71.70
24618;DHT22;12762;51.730;5.356;2024-03-23T11:38:10;11.70;71.70
24618;DHT22;12762;51.730;5.356;2024-03-23T11:40:39;11.30;72.00
24618;DHT22;12762;51.730;5.356;2024-03-23T11:43:08;11.00;72.40
24618;DHT22;12762;51.730;5.356;2024-03-23T11:45:35;10.80;72.90
24618;DHT22;12762;51.730;5.356;2024-03-23T11:48:03;10.60;73.50
24618;DHT22;12762;51.730;5.356;2024-03-23T11:50:29;10.50;73.90
24618;DHT22;12762;51.730;5.356;2024-03-23T11:53:17;10.60;74.90
24618;DHT22;12762;51.730;5.356;2024-03-23T11:55:57;10.90;75.50
24618;DHT22;12762;51.730;5.356;2024-03-23T11:58:24;11.40;75.50
24618;DHT22;12762;51.730;5.356;2024-03-23T12:00:58;11.70;75.30
24618;DHT22;12762;51.730;5.356;2024-03-23T12:03:25;12.00;74.60
24618;DHT22;12762;51.730;5.356;2024-03-23T12:06:02;12.20;74.10
24618;DHT22;12762;51.730;5.356;2024-03-23T12:08:32;12.10;72.70
24618;DHT22;12762;51.730;5.356;2024-03-23T12:11:10;12.00;73.10
24618;DHT22;12762;51.730;5.356;2024-03-23T12:13:37;12.20;72.70
24618;DHT22;12762;51.730;5.356;2024-03-23T12:18:36;12.50;73.00
24618;DHT22;12762;51.730;5.356;2024-03-23T12:21:03;12.70;73.30
24618;DHT22;12762;51.730;5.356;2024-03-23T12:23:28;12.90;73.00
24618;DHT22;12762;51.730;5.356;2024-03-23T12:25:54;13.00;71.60
24618;DHT22;12762;51.730;5.356;2024-03-23T12:28:20;13.00;71.30
24618;DHT22;12762;51.730;5.356;2024-03-23T12:30:46;12.80;70.20
24618;DHT22;12762;51.730;5.356;2024-03-23T12:33:12;12.60;70.30
24618;DHT22;12762;51.730;5.356;2024-03-23T12:35:41;12.50;70.60
24618;DHT22;12762;51.730;5.356;2024-03-23T12:38:09;12.50;70.70
24618;DHT22;12762;51.730;5.356;2024-03-23T12:40:35;12.60;71.00
24618;DHT22;12762;51.730;5.356;2024-03-23T12:43:01;12.80;71.20
24618;DHT22;12762;51.730;5.356;2024-03-23T12:45:26;12.80;70.50
24618;DHT22;12762;51.730;5.356;2024-03-23T12:47:52;12.70;69.50
24618;DHT22;12762;51.730;5.356;2024-03-23T12:50:20;12.50;69.60
24618;DHT22;12762;51.730;5.356;2024-03-23T12:52:46;12.30;69.50
24618;DHT22;12762;51.730;5.356;2024-03-23T12:55:12;12.20;69.50
24618;DHT22;12762;51.730;5.356;2024-03-23T12:57:38;12.00;69.30
24618;DHT22;12762;51.730;5.356;2024-03-23T13:00:04;11.60;69.50
24618;DHT22;12762;51.730;5.356;2024-03-23T13:02:30;11.30;70.20
24618;DHT22;12762;51.730;5.356;2024-03-23T13:04:56;11.00;70.70
24618;DHT22;12762;51.730;5.356;2024-03-23T13:07:25;10.80;71.40
24618;DHT22;12762;51.730;5.356;2024-03-23T13:09:52;10.80;72.30
24618;DHT22;12762;51.730;5.356;2024-03-23T13:12:22;11.00;73.10
24618;DHT22;12762;51.730;5.356;2024-03-23T13:14:48;11.20;73.00
24618;DHT22;12762;51.730;5.356;2024-03-23T13:17:14;11.50;72.20
24618;DHT22;12762;51.730;5.356;2024-03-23T13:19:40;11.70;72.50
24618;DHT22;12762;51.730;5.356;2024-03-23T13:22:06;11.90;71.80
24618;DHT22;12762;51.730;5.356;2024-03-23T13:24:32;11.90;71.40
24618;DHT22;12762;51.730;5.356;2024-03-23T13:26:58;11.90;70.00
24618;DHT22;12762;51.730;5.356;2024-03-23T13:29:24;11.70;70.10
24618;DHT22;12762;51.730;5.356;2024-03-23T13:31:51;11.50;69.70
24618;DHT22;12762;51.730;5.356;2024-03-23T13:34:18;11.30;69.90
24618;DHT22;12762;51.730;5.356;2024-03-23T13:36:45;11.10;69.90
24618;DHT22;12762;51.730;5.356;2024-03-23T13:39:11;11.00;70.20
24618;DHT22;12762;51.730;5.356;2024-03-23T13:41:38;10.90;70.50
24618;DHT22;12762;51.730;5.356;2024-03-23T13:44:09;11.00;70.80
24618;DHT22;12762;51.730;5.356;2024-03-23T13:46:41;11.00;70.80
24618;DHT22;12762;51.730;5.356;2024-03-23T13:49:29;11.00;71.50
24618;DHT22;12762;51.730;5.356;2024-03-23T13:51:57;11.00;70.90
24618;DHT22;12762;51.730;5.356;2024-03-23T13:54:26;11.00;70.70
24618;DHT22;12762;51.730;5.356;2024-03-23T13:56:53;10.90;70.90
24618;DHT22;12762;51.730;5.356;2024-03-23T13:59:20;10.90;71.30
24618;DHT22;12762;51.730;5.356;2024-03-23T14:01:46;10.90;71.30
24618;DHT22;12762;51.730;5.356;2024-03-23T14:04:13;10.90;71.40
24618;DHT22;12762;51.730;5.356;2024-03-23T14:06:42;10.90;71.70
24618;DHT22;12762;51.730;5.356;2024-03-23T14:09:08;11.10;72.20
24618;DHT22;12762;51.730;5.356;2024-03-23T14:11:41;11.30;72.30
24618;DHT22;12762;51.730;5.356;2024-03-23T14:14:09;11.50;72.30
24618;DHT22;12762;51.730;5.356;2024-03-23T14:16:35;11.70;72.10
24618;DHT22;12762;51.730;5.356;2024-03-23T14:19:01;11.90;71.90
24618;DHT22;12762;51.730;5.356;2024-03-23T14:21:27;12.00;71.90
24618;DHT22;12762;51.730;5.356;2024-03-23T14:23:52;12.20;72.00
24618;DHT22;12762;51.730;5.356;2024-03-23T14:26:20;12.20;71.30
24618;DHT22;12762;51.730;5.356;2024-03-23T14:28:47;12.30;71.20
24618;DHT22;12762;51.730;5.356;2024-03-23T14:31:12;12.40;70.90
24618;DHT22;12762;51.730;5.356;2024-03-23T14:33:39;12.50;70.00
24618;DHT22;12762;51.730;5.356;2024-03-23T14:36:15;12.50;69.20
24618;DHT22;12762;51.730;5.356;2024-03-23T14:38:42;12.40;68.10
24618;DHT22;12762;51.730;5.356;2024-03-23T14:41:08;12.20;67.90
24618;DHT22;12762;51.730;5.356;2024-03-23T14:43:34;11.90;66.80
24618;DHT22;12762;51.730;5.356;2024-03-23T14:46:10;11.70;66.70
24618;DHT22;12762;51.730;5.356;2024-03-23T14:48:37;11.30;66.40
24618;DHT22;12762;51.730;5.356;2024-03-23T14:51:03;11.00;66.80
24618;DHT22;12762;51.730;5.356;2024-03-23T14:53:34;10.70;67.10
24618;DHT22;12762;51.730;5.356;2024-03-23T14:56:02;10.40;67.20
24618;DHT22;12762;51.730;5.356;2024-03-23T14:58:28;10.20;67.90
24618;DHT22;12762;51.730;5.356;2024-03-23T15:01:05;10.00;68.40
24618;DHT22;12762;51.730;5.356;2024-03-23T15:03:37;9.90;70.00
24618;DHT22;12762;51.730;5.356;2024-03-23T15:06:05;9.90;70.00
24618;DHT22;12762;51.730;5.356;2024-03-23T15:08:31;9.80;70.30
24618;DHT22;12762;51.730;5.356;2024-03-23T15:11:01;9.80;70.30
24618;DHT22;12762;51.730;5.356;2024-03-23T15:13:34;9.80;70.50
24618;DHT22;12762;51.730;5.356;2024-03-23T15:16:00;9.80;70.90
24618;DHT22;12762;51.730;5.356;2024-03-23T15:18:26;9.80;71.10
24618;DHT22;12762;51.730;5.356;2024-03-23T15:20:54;9.80;71.20
24618;DHT22;12762;51.730;5.356;2024-03-23T15:23:21;9.70;71.00
24618;DHT22;12762;51.730;5.356;2024-03-23T15:25:57;9.70;71.00
24618;DHT22;12762;51.730;5.356;2024-03-23T15:28:23;9.60;71.10
24618;DHT22;12762;51.730;5.356;2024-03-23T15:30:50;9.50;71.20
24618;DHT22;12762;51.730;5.356;2024-03-23T15:33:19;9.40;71.20
24618;DHT22;12762;51.730;5.356;2024-03-23T15:35:45;9.20;71.30
24618;DHT22;12762;51.730;5.356;2024-03-23T15:38:10;9.20;71.60
24618;DHT22;12762;51.730;5.356;2024-03-23T15:40:36;9.10;71.60
24618;DHT22;12762;51.730;5.356;2024-03-23T15:43:02;9.10;71.90
24618;DHT22;12762;51.730;5.356;2024-03-23T15:45:28;9.20;70.70
24618;DHT22;12762;51.730;5.356;2024-03-23T15:47:54;9.20;71.30
24618;DHT22;12762;51.730;5.356;2024-03-23T15:50:20;9.30;71.50
24618;DHT22;12762;51.730;5.356;2024-03-23T15:52:46;9.30;71.20
24618;DHT22;12762;51.730;5.356;2024-03-23T15:55:11;9.30;70.90
24618;DHT22;12762;51.730;5.356;2024-03-23T15:57:37;9.20;70.80
24618;DHT22;12762;51.730;5.356;2024-03-23T16:00:03;9.10;71.00
24618;DHT22;12762;51.730;5.356;2024-03-23T16:02:29;9.00;71.40
24618;DHT22;12762;51.730;5.356;2024-03-23T16:04:55;9.00;71.50
24618;DHT22;12762;51.730;5.356;2024-03-23T16:07:23;9.10;72.00
24618;DHT22;12762;51.730;5.356;2024-03-23T16:09:49;9.10;72.10
24618;DHT22;12762;51.730;5.356;2024-03-23T16:12:15;9.20;72.10
24618;DHT22;12762;51.730;5.356;2024-03-23T16:14:41;9.30;72.10
24618;DHT22;12762;51.730;5.356;2024-03-23T16:17:06;9.40;72.00
24618;DHT22;12762;51.730;5.356;2024-03-23T16:19:32;9.30;71.90
24618;DHT22;12762;51.730;5.356;2024-03-23T16:21:58;9.40;71.90
24618;DHT22;12762;51.730;5.356;2024-03-23T16:24:24;9.30;71.80
24618;DHT22;12762;51.730;5.356;2024-03-23T16:26:50;9.30;71.80
24618;DHT22;12762;51.730;5.356;2024-03-23T16:29:19;9.30;71.80
24618;DHT22;12762;51.730;5.356;2024-03-23T16:31:44;9.30;71.80
24618;DHT22;12762;51.730;5.356;2024-03-23T16:34:10;9.30;71.80
24618;DHT22;12762;51.730;5.356;2024-03-23T16:36:39;9.30;71.90
24618;DHT22;12762;51.730;5.356;2024-03-23T16:39:05;9.30;71.90
24618;DHT22;12762;51.730;5.356;2024-03-23T16:41:31;9.20;71.70
24618;DHT22;12762;51.730;5.356;2024-03-23T16:43:57;9.30;71.90
24618;DHT22;12762;51.730;5.356;2024-03-23T16:46:25;9.40;72.00
24618;DHT22;12762;51.730;5.356;2024-03-23T16:48:51;9.60;72.20
24618;DHT22;12762;51.730;5.356;2024-03-23T16:51:18;9.70;72.00
24618;DHT22;12762;51.730;5.356;2024-03-23T16:53:43;9.90;72.10
24618;DHT22;12762;51.730;5.356;2024-03-23T16:56:11;10.00;70.60
24618;DHT22;12762;51.730;5.356;2024-03-23T16:58:38;9.90;71.10
24618;DHT22;12762;51.730;5.356;2024-03-23T17:01:07;9.70;70.70
24618;DHT22;12762;51.730;5.356;2024-03-23T17:03:35;9.50;70.60
24618;DHT22;12762;51.730;5.356;2024-03-23T17:06:05;9.40;70.90
24618;DHT22;12762;51.730;5.356;2024-03-23T17:08:32;9.20;70.90
24618;DHT22;12762;51.730;5.356;2024-03-23T17:11:02;9.10;71.10
24618;DHT22;12762;51.730;5.356;2024-03-23T17:13:31;8.90;71.20
24618;DHT22;12762;51.730;5.356;2024-03-23T17:15:57;8.80;71.40
24618;DHT22;12762;51.730;5.356;2024-03-23T17:18:24;8.70;71.50
24618;DHT22;12762;51.730;5.356;2024-03-23T17:20:50;8.50;71.70
24618;DHT22;12762;51.730;5.356;2024-03-23T17:23:25;8.50;72.00
24618;DHT22;12762;51.730;5.356;2024-03-23T17:25:51;8.40;72.10
24618;DHT22;12762;51.730;5.356;2024-03-23T17:28:17;8.30;72.10
24618;DHT22;12762;51.730;5.356;2024-03-23T17:30:44;8.20;72.30
24618;DHT22;12762;51.730;5.356;2024-03-23T17:33:10;8.20;72.50
24618;DHT22;12762;51.730;5.356;2024-03-23T17:35:36;8.20;72.70
24618;DHT22;12762;51.730;5.356;2024-03-23T17:38:02;8.20;72.80
24618;DHT22;12762;51.730;5.356;2024-03-23T17:40:29;8.20;72.90
24618;DHT22;12762;51.730;5.356;2024-03-23T17:42:55;8.20;73.10
24618;DHT22;12762;51.730;5.356;2024-03-23T17:45:26;8.20;73.20
24618;DHT22;12762;51.730;5.356;2024-03-23T17:47:52;8.20;73.20
24618;DHT22;12762;51.730;5.356;2024-03-23T17:50:18;8.20;73.20
24618;DHT22;12762;51.730;5.356;2024-03-23T17:52:44;8.20;73.20
24618;DHT22;12762;51.730;5.356;2024-03-23T17:55:11;8.20;73.30
24618;DHT22;12762;51.730;5.356;2024-03-23T17:57:40;8.10;73.20